Time;durP1;ratioP1;P1;durP2;ratioP2;P2;SDS_P1;SDS_P2;PMS_P1;PMS_P2;Temp;Humidity;BMP_temperature;BMP_pressure;BME280_temperature;BME280_humidity;BME280_pressure;Samples;Min_cycle;Max_cycle;Signal;HPM_P1;HPM_P2
2023/10/06 00:00:19;;;;;;;16.92;5.47;;;;;;;12.35;100.00;102329.59;1250734;23;20255;-91
2023/10/06 00:00:50;;;;;;;6.82;3.95;;;;;;;12.38;100.00;102329.19;1256455;23;20262;-90
2023/10/06 00:01:25;;;;;;;7.25;4.78;;;;;;;12.37;100.00;102328.38;1264006;23;20353;-91
2023/10/06 00:02:07;;;;;;;10.35;5.07;;;;;;;12.31;100.00;102325.63;1261786;23;20251;-91
2023/10/06 00:02:39;;;;;;;7.07;4.32;;;;;;;12.22;100.00;102332.09;1248372;23;20274;-91
2023/10/06 00:03:11;;;;;;;8.27;4.55;;;;;;;12.19;100.00;102327.97;1249865;23;20354;-92
2023/10/06 00:03:44;;;;;;;6.35;3.90;;;;;;;12.17;100.00;102330.00;1249186;23;20266;-91
2023/10/06 00:04:16;;;;;;;10.98;5.00;;;;;;;12.12;100.00;102326.25;1255225;23;20270;-91
2023/10/06 00:04:51;;;;;;;6.70;3.92;;;;;;;12.18;100.00;102330.84;1259979;23;20785;-91
2023/10/06 00:05:24;;;;;;;8.48;4.03;;;;;;;12.18;100.00;102322.81;1256842;23;20259;-91
2023/10/06 00:06:00;;;;;;;7.43;3.97;;;;;;;12.15;100.00;102320.53;1257454;23;20251;-91
2023/10/06 00:06:32;;;;;;;8.40;4.55;;;;;;;12.21;100.00;102330.47;1260425;23;20279;-91
2023/10/06 00:07:07;;;;;;;7.47;4.10;;;;;;;12.20;100.00;102334.97;1254945;23;20282;-91
2023/10/06 00:07:40;;;;;;;15.77;5.25;;;;;;;12.23;100.00;102328.41;1253185;23;20881;-91
2023/10/06 00:08:16;;;;;;;6.43;4.22;;;;;;;12.22;100.00;102329.44;1257113;23;20317;-91
2023/10/06 00:08:51;;;;;;;7.95;4.05;;;;;;;12.26;100.00;102341.41;1258131;23;20326;-91
2023/10/06 00:09:28;;;;;;;12.55;4.10;;;;;;;12.24;100.00;102332.75;1261555;23;20266;-91
2023/10/06 00:10:07;;;;;;;10.43;5.00;;;;;;;12.26;100.00;102333.38;1254443;23;20270;-91
2023/10/06 00:10:44;;;;;;;9.70;6.65;;;;;;;12.26;100.00;102338.72;1256431;23;20267;-91
2023/10/06 00:11:28;;;;;;;10.00;4.55;;;;;;;12.12;100.00;102336.94;1258212;23;20251;-91
2023/10/06 00:12:03;;;;;;;9.75;3.72;;;;;;;12.12;100.00;102336.94;1255906;23;20298;-90
2023/10/06 00:12:35;;;;;;;8.00;4.10;;;;;;;12.08;100.00;102331.16;1262788;23;20250;-90
2023/10/06 00:13:11;;;;;;;10.15;4.47;;;;;;;12.09;100.00;102337.34;1256233;23;20375;-90
2023/10/06 00:14:00;;;;;;;8.45;4.10;;;;;;;12.00;100.00;102340.09;1251030;23;20279;-91
2023/10/06 00:14:48;;;;;;;6.10;3.95;;;;;;;12.00;100.00;102334.75;1257334;23;20287;-91
2023/10/06 00:15:26;;;;;;;14.45;4.28;;;;;;;12.07;100.00;102330.34;1260781;23;20266;-91
2023/10/06 00:16:00;;;;;;;8.00;4.03;;;;;;;12.03;100.00;102334.38;1255673;23;20271;-91
2023/10/06 00:16:38;;;;;;;8.23;4.38;;;;;;;11.97;100.00;102328.97;1253123;23;20645;-91
2023/10/06 00:17:17;;;;;;;8.55;4.35;;;;;;;11.95;100.00;102331.00;1257542;23;20727;-91
2023/10/06 00:17:50;;;;;;;9.15;4.72;;;;;;;11.96;100.00;102333.47;1253312;23;20315;-91
2023/10/06 00:18:23;;;;;;;13.18;4.82;;;;;;;11.99;100.00;102333.09;1261848;23;20743;-91
2023/10/06 00:18:59;;;;;;;4.57;3.75;;;;;;;11.94;100.00;102330.19;1255621;23;20263;-91
2023/10/06 00:19:34;;;;;;;8.68;5.38;;;;;;;11.95;100.00;102331.84;1256806;23;20262;-91
2023/10/06 00:20:21;;;;;;;8.88;4.65;;;;;;;12.01;100.00;102341.75;1255757;23;20597;-91
2023/10/06 00:20:57;;;;;;;6.28;4.53;;;;;;;11.98;100.00;102339.47;1262923;23;20258;-91
2023/10/06 00:21:29;;;;;;;6.93;4.13;;;;;;;11.93;100.00;102338.38;1250618;23;20274;-91
2023/10/06 00:22:12;;;;;;;7.50;4.10;;;;;;;11.94;100.00;102337.38;1255051;23;20274;-92
2023/10/06 00:22:44;;;;;;;6.03;4.30;;;;;;;11.91;100.00;102335.91;1262609;23;20282;-91
2023/10/06 00:23:22;;;;;;;6.70;3.72;;;;;;;11.67;100.00;102338.84;1255653;23;20282;-91
2023/10/06 00:23:55;;;;;;;8.35;4.65;;;;;;;11.72;100.00;102333.78;1252916;23;20252;-92
2023/10/06 00:24:26;;;;;;;8.10;4.00;;;;;;;11.76;100.00;102337.72;1250265;23;20267;-92
2023/10/06 00:24:59;;;;;;;9.20;4.30;;;;;;;11.73;100.00;102332.78;1254929;23;20357;-92
2023/10/06 00:25:32;;;;;;;8.25;4.53;;;;;;;11.76;100.00;102327.06;1254175;23;20270;-91
2023/10/06 00:26:04;;;;;;;8.13;5.03;;;;;;;11.79;100.00;102332.06;1256462;23;20270;-91
2023/10/06 00:26:37;;;;;;;6.93;3.92;;;;;;;11.74;100.00;102331.75;1255900;23;20279;-91
2023/10/06 00:27:18;;;;;;;5.65;4.28;;;;;;;11.77;100.00;102324.19;1255817;23;20353;-92
2023/10/06 00:28:44;;;;;;;6.68;4.15;;;;;;;11.79;100.00;102329.41;1255624;23;20724;-91
2023/10/06 00:29:21;;;;;;;11.00;4.85;;;;;;;11.73;100.00;102327.44;1269447;23;20234;-91
2023/10/06 00:29:55;;;;;;;7.40;4.25;;;;;;;11.69;100.00;102331.50;1262059;23;20289;-90
2023/10/06 00:30:27;;;;;;;10.90;4.28;;;;;;;11.71;100.00;102335.63;1262780;23;20262;-91
2023/10/06 00:31:08;;;;;;;14.85;4.82;;;;;;;11.75;100.00;102330.72;1257409;23;20251;-91
2023/10/06 00:31:40;;;;;;;;;;;;;;;11.80;100.00;102328.38;1256519;23;20382;-91
2023/10/06 00:32:21;;;;;;;10.65;4.38;;;;;;;11.82;100.00;102330.88;1257110;23;19924;-90
2023/10/06 00:32:54;;;;;;;5.63;4.40;;;;;;;11.77;100.00;102326.88;1262377;23;20266;-89
2023/10/06 00:33:32;;;;;;;11.63;4.72;;;;;;;11.80;100.00;102323.06;1259060;23;20015;-90
2023/10/06 00:34:06;;;;;;;9.10;4.10;;;;;;;11.75;100.00;102323.56;1256219;23;20266;-91
2023/10/06 00:34:39;;;;;;;7.88;5.22;;;;;;;11.74;100.00;102323.75;1265070;23;20250;-91
2023/10/06 00:35:11;;;;;;;6.93;4.13;;;;;;;11.56;100.00;102321.50;1267261;23;20306;-91
2023/10/06 00:35:44;;;;;;;10.60;3.53;;;;;;;11.61;100.00;102319.09;1255860;23;20608;-91
2023/10/06 00:36:16;;;;;;;8.48;4.50;;;;;;;11.61;100.00;102318.25;1250858;23;20663;-91
2023/10/06 00:36:56;;;;;;;6.22;4.05;;;;;;;11.56;100.00;102321.50;1250456;23;20267;-91
2023/10/06 00:37:28;;;;;;;9.00;3.85;;;;;;;11.72;100.00;102325.78;1250689;23;20410;-90
2023/10/06 00:38:12;;;;;;;9.80;4.28;;;;;;;11.45;100.00;102320.09;1260131;23;20255;-91
2023/10/06 00:38:45;;;;;;;6.30;3.78;;;;;;;11.53;100.00;102315.72;1258843;23;20572;-92
2023/10/06 00:39:24;;;;;;;5.93;4.68;;;;;;;11.51;100.00;102321.22;1255848;23;20593;-91
2023/10/06 00:39:56;;;;;;;6.13;4.32;;;;;;;11.45;100.00;102312.09;1252998;23;20258;-91
2023/10/06 00:40:27;;;;;;;10.45;4.40;;;;;;;11.23;100.00;102326.41;1251304;23;20279;-90
2023/10/06 00:41:06;;;;;;;8.20;4.20;;;;;;;11.16;100.00;102320.13;1254930;23;20366;-91
2023/10/06 00:41:43;;;;;;;8.07;4.22;;;;;;;11.10;100.00;102320.88;1256747;23;20270;-92
2023/10/06 00:42:17;;;;;;;5.63;4.22;;;;;;;11.15;100.00;102315.81;1256576;23;20373;-92
2023/10/06 00:43:00;;;;;;;8.82;4.68;;;;;;;11.15;100.00;102318.47;1249449;23;20274;-91
2023/10/06 00:43:36;;;;;;;11.75;5.25;;;;;;;11.04;100.00;102311.75;1255143;23;20337;-92
2023/10/06 00:44:10;;;;;;;8.65;3.60;;;;;;;11.27;100.00;102311.69;1250634;23;20756;-91
2023/10/06 00:44:45;;;;;;;5.55;4.07;;;;;;;11.13;100.00;102301.81;1256449;23;20267;-91
2023/10/06 00:45:16;;;;;;;6.78;4.40;;;;;;;11.00;100.00;102307.81;1252183;23;20248;-91
2023/10/06 00:45:49;;;;;;;9.07;4.50;;;;;;;11.08;100.00;102309.56;1256773;23;20261;-91
2023/10/06 00:46:20;;;;;;;12.40;4.72;;;;;;;11.13;100.00;102304.50;1259098;23;20254;-90
2023/10/06 00:46:52;;;;;;;7.97;4.25;;;;;;;11.21;100.00;102301.72;1265182;23;20246;-91
2023/10/06 00:47:24;;;;;;;11.07;4.78;;;;;;;11.23;100.00;102298.88;1262100;23;20266;-90
2023/10/06 00:47:56;;;;;;;5.60;4.30;;;;;;;11.21;100.00;102301.72;1256476;23;20270;-91
2023/10/06 00:48:29;;;;;;;5.07;4.05;;;;;;;11.13;100.00;102304.50;1250321;23;20271;-91
2023/10/06 00:49:04;;;;;;;8.43;4.50;;;;;;;11.11;100.00;102295.84;1256717;23;20275;-91
2023/10/06 00:49:36;;;;;;;10.82;4.80;;;;;;;10.99;100.00;102300.81;1256865;23;20277;-91
2023/10/06 00:50:11;;;;;;;7.72;4.38;;;;;;;10.90;100.00;102298.41;1246581;23;20256;-91
2023/10/06 00:50:43;;;;;;;5.07;4.43;;;;;;;11.06;100.00;102298.25;1255378;23;20603;-91
2023/10/06 00:51:22;;;;;;;6.78;4.80;;;;;;;11.05;100.00;102301.91;1256957;23;20251;-90
2023/10/06 00:51:54;;;;;;;7.85;4.30;;;;;;;11.17;100.00;102294.28;1257690;23;20278;-91
2023/10/06 00:52:26;;;;;;;13.48;4.65;;;;;;;11.06;100.00;102292.91;1250942;23;20361;-91
2023/10/06 00:52:58;;;;;;;9.85;3.83;;;;;;;11.20;100.00;102291.25;1258498;23;20596;-91
2023/10/06 00:53:33;;;;;;;8.18;3.97;;;;;;;11.09;100.00;102300.53;1261992;23;20302;-91
2023/10/06 00:54:04;;;;;;;7.18;4.55;;;;;;;10.94;100.00;102295.19;1249120;23;20267;-91
2023/10/06 00:54:36;;;;;;;10.75;4.05;;;;;;;11.02;100.00;102297.78;1250435;23;20268;-90
2023/10/06 00:55:12;;;;;;;8.85;5.40;;;;;;;10.97;100.00;102300.19;1249339;23;20271;-91
2023/10/06 00:55:44;;;;;;;8.23;4.07;;;;;;;10.93;100.00;102298.03;1251112;23;20334;-90
2023/10/06 00:56:16;;;;;;;6.68;4.15;;;;;;;11.03;100.00;102303.94;1250737;23;20267;-92
2023/10/06 00:56:48;;;;;;;8.50;5.63;;;;;;;11.06;100.00;102301.75;1245312;23;20821;-91
2023/10/06 00:57:20;;;;;;;11.20;4.13;;;;;;;11.03;100.00;102293.28;1250521;23;20745;-91
2023/10/06 00:57:55;;;;;;;7.97;4.35;;;;;;;11.06;100.00;102299.06;1262858;23;20282;-91
2023/10/06 00:58:34;;;;;;;7.63;4.65;;;;;;;11.19;100.00;102295.75;1256292;23;20271;-91
2023/10/06 00:59:05;;;;;;;4.68;4.15;;;;;;;11.24;100.00;102297.88;1256559;23;20255;-91
2023/10/06 00:59:38;;;;;;;8.30;3.90;;;;;;;11.21;100.00;102290.22;1257372;23;20332;-92
2023/10/06 01:00:21;;;;;;;6.82;4.40;;;;;;;11.17;100.00;102295.09;1256937;23;20279;-91
2023/10/06 01:00:56;;;;;;;8.95;4.90;;;;;;;11.30;100.00;102297.97;1262166;23;20271;-92
2023/10/06 01:01:28;;;;;;;9.43;5.38;;;;;;;11.34;100.00;102290.41;1256486;23;20267;-92
2023/10/06 01:01:59;;;;;;;16.20;4.10;;;;;;;11.12;100.00;102287.66;1258313;23;20274;-91
2023/10/06 01:02:33;;;;;;;10.43;5.22;;;;;;;11.20;100.00;102297.41;1259277;23;20266;-92
2023/10/06 01:03:14;;;;;;;8.90;3.92;;;;;;;11.14;100.00;102292.81;1250644;23;20359;-91
2023/10/06 01:04:00;;;;;;;9.95;4.40;;;;;;;11.12;100.00;102302.84;1256709;23;20282;-92
2023/10/06 01:04:35;;;;;;;6.97;4.63;;;;;;;11.10;100.00;102295.03;1249701;23;20015;-91
2023/10/06 01:05:09;;;;;;;11.50;5.32;;;;;;;11.19;100.00;102293.06;1251611;23;20267;-91
2023/10/06 01:05:45;;;;;;;12.13;4.93;;;;;;;11.06;100.00;102287.56;1255520;23;20739;-91
2023/10/06 01:06:23;;;;;;;12.57;4.30;;;;;;;11.07;100.00;102295.38;1254990;23;20286;-91
2023/10/06 01:06:54;;;;;;;9.43;4.82;;;;;;;11.25;100.00;102287.03;1251142;23;20267;-91
2023/10/06 01:07:26;;;;;;;8.20;4.63;;;;;;;11.24;100.00;102282.72;1256518;23;20278;-92
2023/10/06 01:07:58;;;;;;;11.40;4.47;;;;;;;11.23;100.00;102283.72;1268141;23;20269;-92
2023/10/06 01:08:30;;;;;;;9.10;4.95;;;;;;;11.32;100.00;102277.25;1261817;23;20278;-91
2023/10/06 01:09:15;;;;;;;6.57;5.82;;;;;;;11.31;100.00;102283.63;1254215;23;20724;-91
2023/10/06 01:09:57;;;;;;;12.93;6.18;;;;;;;11.38;100.00;102281.84;1256778;23;20259;-91
2023/10/06 01:10:34;;;;;;;8.68;4.78;;;;;;;11.38;100.00;102287.19;1256409;23;20266;-91
2023/10/06 01:11:16;;;;;;;6.28;5.15;;;;;;;11.24;100.00;102296.03;1256808;23;20255;-91
2023/10/06 01:11:50;;;;;;;6.97;4.82;;;;;;;11.26;100.00;102293.19;1248254;23;20275;-92
2023/10/06 01:12:26;;;;;;;11.63;5.13;;;;;;;11.44;100.00;102291.78;1250073;23;20278;-91
2023/10/06 01:12:59;;;;;;;10.30;6.00;;;;;;;11.40;100.00;102301.16;1251443;23;20263;-91
2023/10/06 01:13:35;;;;;;;8.23;5.32;;;;;;;11.43;100.00;102284.78;1260215;23;20263;-90
2023/10/06 01:14:07;;;;;;;7.10;5.18;;;;;;;11.40;100.00;102295.84;1251454;23;20414;-91
2023/10/06 01:14:40;;;;;;;9.00;5.05;;;;;;;11.35;100.00;102298.22;1249403;23;20268;-91
2023/10/06 01:15:19;;;;;;;6.95;4.25;;;;;;;11.23;100.00;102290.88;1251714;23;20259;-91
2023/10/06 01:15:56;;;;;;;9.32;5.90;;;;;;;11.24;100.00;102289.88;1257106;23;20251;-91
2023/10/06 01:16:34;;;;;;;9.38;5.50;;;;;;;11.21;100.00;102296.38;1255076;23;20274;-91
2023/10/06 01:17:16;;;;;;;10.98;5.32;;;;;;;11.24;100.00;102298.72;1254275;23;20304;-91
2023/10/06 01:17:48;;;;;;;9.93;5.30;;;;;;;11.32;100.00;102293.28;1255204;23;20789;-90
2023/10/06 01:18:23;;;;;;;10.35;5.65;;;;;;;11.35;100.00;102303.56;1261505;23;20349;-90
2023/10/06 01:19:06;;;;;;;10.60;5.70;;;;;;;11.35;100.00;102303.56;1262460;23;20281;-91
2023/10/06 01:19:47;;;;;;;10.70;5.97;;;;;;;11.38;100.00;102297.03;1259478;23;20566;-91
2023/10/06 01:20:33;;;;;;;;;;;;;;;11.42;100.00;102299.13;1268002;23;20257;-90
2023/10/06 01:21:17;;;;;;;5.75;4.72;;;;;;;11.48;100.00;102296.72;1261197;23;19954;-91
2023/10/06 01:21:49;;;;;;;8.20;4.55;;;;;;;11.40;100.00;102293.16;1262465;23;20250;-91
2023/10/06 01:22:41;;;;;;;7.00;5.18;;;;;;;11.45;100.00;102297.94;1256126;23;20259;-91
2023/10/06 01:23:21;;;;;;;10.35;6.00;;;;;;;11.45;100.00;102298.75;1258753;23;20251;-90
2023/10/06 01:23:58;;;;;;;10.75;5.28;;;;;;;11.37;100.00;102285.53;1257344;23;20323;-91
2023/10/06 01:24:29;;;;;;;7.13;5.20;;;;;;;11.36;100.00;102286.53;1265719;23;20021;-91
2023/10/06 01:25:11;;;;;;;11.77;4.65;;;;;;;11.43;100.00;102300.78;1261002;23;20276;-90
2023/10/06 01:25:46;;;;;;;9.45;6.05;;;;;;;11.39;100.00;102291.50;1250109;23;20366;-91
2023/10/06 01:26:18;;;;;;;14.60;6.05;;;;;;;11.49;100.00;102288.53;1258538;23;20255;-91
2023/10/06 01:26:54;;;;;;;7.65;5.03;;;;;;;11.49;100.00;102293.06;1262430;23;20270;-91
2023/10/06 01:27:29;;;;;;;10.30;5.97;;;;;;;11.42;100.00;102296.47;1254056;23;20267;-91
2023/10/06 01:28:03;;;;;;;16.48;6.97;;;;;;;11.38;100.00;102291.69;1258507;23;20261;-91
2023/10/06 01:28:35;;;;;;;9.95;6.65;;;;;;;11.44;100.00;102299.78;1243047;23;20296;-91
2023/10/06 01:29:13;;;;;;;6.50;5.55;;;;;;;11.46;100.00;102295.06;1250882;23;20271;-90
2023/10/06 01:29:45;;;;;;;14.13;5.55;;;;;;;11.52;100.00;102290.03;1250794;23;20262;-90
2023/10/06 01:30:18;;;;;;;7.10;5.15;;;;;;;11.50;100.00;102289.38;1255748;23;20359;-91
2023/10/06 01:30:52;;;;;;;9.63;5.80;;;;;;;11.50;100.00;102295.53;1256276;23;20298;-90
2023/10/06 01:31:24;;;;;;;7.97;5.68;;;;;;;11.54;100.00;102285.34;1254785;23;20263;-91
2023/10/06 01:31:57;;;;;;;10.80;6.05;;;;;;;11.57;100.00;102279.63;1260037;23;20266;-89
2023/10/06 01:32:30;;;;;;;10.75;5.82;;;;;;;11.57;100.00;102287.63;1258214;23;20259;-91
2023/10/06 01:33:04;;;;;;;8.27;5.90;;;;;;;11.55;100.00;102284.31;1255414;23;20271;-91
2023/10/06 01:33:36;;;;;;;11.50;5.45;;;;;;;11.56;100.00;102277.97;1260363;23;20266;-91
2023/10/06 01:34:08;;;;;;;10.55;5.63;;;;;;;11.66;100.00;102273.16;1250332;23;20290;-90
2023/10/06 01:34:40;;;;;;;9.25;5.40;;;;;;;11.60;100.00;102276.56;1246914;23;20895;-91
2023/10/06 01:35:13;;;;;;;13.25;6.72;;;;;;;11.58;100.00;102274.09;1253309;23;20261;-91
2023/10/06 01:35:47;;;;;;;9.25;5.97;;;;;;;11.52;100.00;102276.69;1257003;23;20274;-91
2023/10/06 01:36:22;;;;;;;10.13;5.20;;;;;;;11.42;100.00;102280.47;1250912;23;20283;-91
2023/10/06 01:36:54;;;;;;;7.75;5.57;;;;;;;11.43;100.00;102278.63;1250010;23;20276;-91
2023/10/06 01:37:25;;;;;;;17.23;7.72;;;;;;;11.48;100.00;102278.06;1253731;23;20721;-91
2023/10/06 01:37:59;;;;;;;13.23;7.45;;;;;;;11.51;100.00;102277.72;1255779;23;20294;-90
2023/10/06 01:38:30;;;;;;;6.28;5.40;;;;;;;11.49;100.00;102282.38;1261298;23;20281;-91
2023/10/06 01:39:04;;;;;;;8.13;5.25;;;;;;;11.52;100.00;102282.03;1261304;23;20262;-90
2023/10/06 01:39:36;;;;;;;8.70;5.55;;;;;;;11.49;100.00;102288.53;1255981;23;20762;-91
2023/10/06 01:41:01;;;;;;;12.15;5.85;;;;;;;11.63;100.00;102276.19;1249749;23;20276;-91
2023/10/06 01:41:34;;;;;;;5.93;5.20;;;;;;;11.60;100.00;102276.56;1256623;23;20279;-90
2023/10/06 01:42:17;;;;;;;13.02;6.35;;;;;;;11.58;100.00;102286.63;1252733;23;20300;-91
2023/10/06 01:42:48;;;;;;;10.82;6.25;;;;;;;11.58;100.00;102275.94;1255950;23;20263;-91
2023/10/06 01:43:24;;;;;;;6.55;5.40;;;;;;;11.63;100.00;102273.53;1256427;23;20880;-90
2023/10/06 01:43:55;;;;;;;10.00;5.53;;;;;;;11.59;100.00;102274.94;1253225;23;20275;-91
2023/10/06 01:44:28;;;;;;;7.63;5.28;;;;;;;11.51;100.00;102269.69;1257515;23;20280;-91
2023/10/06 01:45:13;;;;;;;17.13;7.15;;;;;;;11.49;100.00;102269.03;1261467;23;20773;-91
2023/10/06 01:45:45;;;;;;;12.70;6.45;;;;;;;11.42;100.00;102269.78;1260746;23;20274;-91
2023/10/06 01:46:17;;;;;;;12.57;5.60;;;;;;;11.52;100.00;102266.03;1255466;23;20317;-90
2023/10/06 01:46:53;;;;;;;10.88;5.60;;;;;;;11.49;100.00;102261.84;1249671;23;20272;-91
2023/10/06 01:47:29;;;;;;;10.15;5.72;;;;;;;11.53;100.00;102257.00;1256948;23;20259;-90
2023/10/06 01:48:46;;;;;;;8.25;5.43;;;;;;;11.49;100.00;102258.38;1250556;23;20271;-90
2023/10/06 01:49:17;;;;;;;8.43;6.38;;;;;;;11.50;100.00;102257.34;1257947;23;20255;-91
2023/10/06 01:49:49;;;;;;;8.82;6.40;;;;;;;11.47;100.00;102255.88;1261140;23;20527;-91
2023/10/06 01:50:26;;;;;;;8.70;5.40;;;;;;;11.44;100.00;102249.09;1247925;23;20600;-91
2023/10/06 01:50:58;;;;;;;8.13;5.60;;;;;;;11.38;100.00;102255.16;1249181;23;20273;-91
2023/10/06 01:51:38;;;;;;;9.10;5.00;;;;;;;11.34;100.00;102256.56;1243531;23;20275;-91
2023/10/06 01:52:13;;;;;;;13.45;5.80;;;;;;;11.33;100.00;102252.25;1246738;23;20257;-91
2023/10/06 01:52:46;;;;;;;8.85;5.57;;;;;;;11.38;100.00;102262.34;1252092;23;20408;-91
2023/10/06 01:53:18;;;;;;;9.57;6.20;;;;;;;11.38;100.00;102255.16;1259020;23;20345;-91
2023/10/06 01:53:50;;;;;;;14.25;5.53;;;;;;;11.37;100.00;102253.53;1267079;23;20341;-91
2023/10/06 01:54:27;;;;;;;9.13;6.03;;;;;;;11.30;100.00;102255.28;1261525;23;20278;-91
2023/10/06 01:55:01;;;;;;;10.85;5.75;;;;;;;11.42;100.00;102260.97;1258447;23;20613;-91
2023/10/06 01:55:39;;;;;;;8.90;5.63;;;;;;;11.42;100.00;102253.78;1256357;23;20274;-91
2023/10/06 01:56:13;;;;;;;11.77;5.90;;;;;;;11.42;100.00;102261.78;1255847;23;20299;-92
2023/10/06 01:56:46;;;;;;;14.52;6.65;;;;;;;11.42;100.00;102261.78;1250524;23;20263;-90
2023/10/06 01:57:19;;;;;;;16.25;7.80;;;;;;;11.37;100.00;102258.84;1256272;23;20281;-91
2023/10/06 01:57:51;;;;;;;11.90;6.40;;;;;;;11.37;100.00;102269.53;1261293;23;20410;-90
2023/10/06 01:58:23;;;;;;;7.38;5.20;;;;;;;11.46;100.00;102262.22;1254933;23;20345;-90
2023/10/06 01:58:55;;;;;;;9.70;6.03;;;;;;;11.49;100.00;102261.03;1244490;23;20261;-90
2023/10/06 01:59:28;;;;;;;12.02;5.72;;;;;;;11.46;100.00;102257.72;1245240;23;20272;-90
2023/10/06 01:59:59;;;;;;;9.70;5.40;;;;;;;11.46;100.00;102263.06;1255092;23;20279;-90
2023/10/06 02:00:33;;;;;;;9.07;5.68;;;;;;;11.53;100.00;102257.81;1258854;23;20799;-90
2023/10/06 02:01:08;;;;;;;8.60;5.95;;;;;;;11.48;100.00;102254.03;1253506;23;20270;-90
2023/10/06 02:01:41;;;;;;;10.73;6.28;;;;;;;11.50;100.00;102260.84;1258617;23;20251;-90
2023/10/06 02:02:13;;;;;;;12.70;6.45;;;;;;;11.52;100.00;102250.00;1255446;23;20281;-90
2023/10/06 02:02:50;;;;;;;14.57;6.28;;;;;;;11.34;100.00;102259.22;1259057;23;20255;-90
2023/10/06 02:03:23;;;;;;;8.68;6.35;;;;;;;11.44;100.00;102258.94;1260873;23;20253;-91
2023/10/06 02:03:55;;;;;;;10.40;6.65;;;;;;;11.48;100.00;102248.69;1258964;23;20277;-92
2023/10/06 02:04:33;;;;;;;9.10;6.57;;;;;;;11.52;100.00;102263.34;1262964;23;20251;-91
2023/10/06 02:05:12;;;;;;;16.85;6.95;;;;;;;11.42;100.00;102261.78;1255498;23;20263;-89
2023/10/06 02:05:44;;;;;;;9.52;6.03;;;;;;;11.49;100.00;102263.69;1259989;23;20577;-90
2023/10/06 02:06:16;;;;;;;10.63;6.47;;;;;;;11.47;100.00;102263.88;1257716;23;20291;-90
2023/10/06 02:06:48;;;;;;;13.13;5.93;;;;;;;11.50;100.00;102260.00;1258093;23;20365;-91
2023/10/06 02:07:20;;;;;;;9.93;6.38;;;;;;;11.45;100.00;102255.25;1258827;23;20303;-91
2023/10/06 02:07:51;;;;;;;9.68;5.43;;;;;;;11.47;100.00;102258.56;1255821;23;20263;-91
2023/10/06 02:08:23;;;;;;;8.82;6.90;;;;;;;11.45;100.00;102256.06;1259973;23;20603;-91
2023/10/06 02:08:55;;;;;;;8.73;5.82;;;;;;;11.42;100.00;102255.63;1261963;23;20656;-91
2023/10/06 02:09:28;;;;;;;13.30;6.40;;;;;;;11.45;100.00;102256.06;1258728;23;20255;-90
2023/10/06 02:09:59;;;;;;;7.40;5.78;;;;;;;11.51;100.00;102265.19;1245234;23;20279;-91
2023/10/06 02:10:32;;;;;;;11.27;5.88;;;;;;;11.48;100.00;102259.38;1251798;23;20271;-91
2023/10/06 02:11:04;;;;;;;9.93;5.82;;;;;;;11.52;100.00;102266.03;1250364;23;20613;-90
2023/10/06 02:11:36;;;;;;;12.73;6.05;;;;;;;11.52;100.00;102266.03;1254414;23;20403;-90
2023/10/06 02:12:08;;;;;;;10.77;6.10;;;;;;;11.50;100.00;102268.03;1260361;23;20351;-91
2023/10/06 02:12:40;;;;;;;9.20;5.95;;;;;;;11.41;100.00;102260.13;1254644;23;20267;-91
2023/10/06 02:13:11;;;;;;;11.60;5.63;;;;;;;11.43;100.00;102268.78;1249334;23;20629;-91
2023/10/06 02:13:43;;;;;;;12.85;7.88;;;;;;;11.51;100.00;102262.53;1256238;23;20305;-90
2023/10/06 02:14:17;;;;;;;12.23;6.93;;;;;;;11.52;100.00;102255.34;1265085;23;20345;-91
2023/10/06 02:14:48;;;;;;;9.70;6.28;;;;;;;11.50;100.00;102262.69;1251178;23;20303;-89
2023/10/06 02:15:20;;;;;;;9.15;5.57;;;;;;;11.46;100.00;102263.06;1250827;23;20276;-91
2023/10/06 02:15:56;;;;;;;10.20;5.95;;;;;;;11.48;100.00;102265.53;1256625;23;20277;-90
2023/10/06 02:16:29;;;;;;;15.68;6.72;;;;;;;11.54;100.00;102264.81;1255647;23;20267;-90
2023/10/06 02:17:05;;;;;;;11.90;6.57;;;;;;;11.53;100.00;102268.50;1246520;23;20260;-91
2023/10/06 02:17:40;;;;;;;12.25;5.80;;;;;;;11.51;100.00;102265.19;1248733;23;20338;-91
2023/10/06 02:18:12;;;;;;;8.30;5.95;;;;;;;11.59;100.00;102267.75;1256013;23;20274;-91
2023/10/06 02:18:45;;;;;;;13.32;7.07;;;;;;;11.43;100.00;102263.44;1256220;23;20266;-91
2023/10/06 02:19:16;;;;;;;9.02;6.13;;;;;;;11.47;100.00;102263.88;1251498;23;20311;-91
2023/10/06 02:19:48;;;;;;;11.73;6.80;;;;;;;11.50;100.00;102265.34;1256194;23;20321;-91
2023/10/06 02:21:01;;;;;;;10.13;6.85;;;;;;;11.54;100.00;102266.66;1259486;23;20258;-91
2023/10/06 02:21:32;;;;;;;8.43;5.85;;;;;;;11.55;100.00;102270.97;1258903;23;20263;-91
2023/10/06 02:22:06;;;;;;;12.52;6.00;;;;;;;11.48;100.00;102275.38;1255590;23;20274;-92
2023/10/06 02:22:38;;;;;;;8.18;6.85;;;;;;;11.49;100.00;102271.69;1256864;23;20791;-90
2023/10/06 02:23:09;;;;;;;10.30;6.00;;;;;;;11.50;100.00;102268.03;1261328;23;20338;-91
2023/10/06 02:23:42;;;;;;;7.95;5.63;;;;;;;11.48;100.00;102270.88;1259661;23;20740;-91
2023/10/06 02:24:16;;;;;;;15.40;6.35;;;;;;;11.44;100.00;102273.09;1261965;23;20281;-92
2023/10/06 02:24:48;;;;;;;9.88;6.00;;;;;;;11.45;100.00;102269.41;1266101;23;20286;-91
2023/10/06 02:25:20;;;;;;;13.60;6.70;;;;;;;11.44;100.00;102266.94;1260530;23;20274;-90
2023/10/06 02:25:51;;;;;;;8.13;5.50;;;;;;;11.40;100.00;102273.66;1258013;23;20258;-90
2023/10/06 02:26:24;;;;;;;6.45;5.47;;;;;;;11.46;100.00;102267.56;1255871;23;20259;-89
2023/10/06 02:27:00;;;;;;;13.55;6.20;;;;;;;11.45;100.00;102269.41;1249290;23;20272;-91
2023/10/06 02:27:43;;;;;;;8.00;5.93;;;;;;;11.46;100.00;102268.41;1256294;23;20294;-90
2023/10/06 02:28:15;;;;;;;7.90;5.22;;;;;;;11.42;100.00;102267.13;1250108;23;20271;-90
2023/10/06 02:28:50;;;;;;;12.25;6.10;;;;;;;11.48;100.00;102265.53;1251131;23;20275;-91
2023/10/06 02:29:24;;;;;;;12.35;6.18;;;;;;;11.46;100.00;102268.41;1254559;23;20301;-91
2023/10/06 02:29:56;;;;;;;9.80;5.80;;;;;;;11.42;100.00;102271.63;1255121;23;20837;-91
2023/10/06 02:30:37;;;;;;;11.13;5.28;;;;;;;11.51;100.00;102267.84;1251108;23;20720;-90
2023/10/06 02:31:10;;;;;;;15.90;5.57;;;;;;;11.45;100.00;102277.41;1253326;23;20272;-91
2023/10/06 02:31:42;;;;;;;9.68;5.18;;;;;;;11.45;100.00;102272.09;1261310;23;20125;-91
2023/10/06 02:32:14;;;;;;;8.85;6.63;;;;;;;11.43;100.00;102270.63;1256434;23;20274;-91
2023/10/06 02:32:46;;;;;;;8.13;5.85;;;;;;;11.40;100.00;102273.66;1263333;23;20250;-90
2023/10/06 02:33:18;;;;;;;10.57;5.00;;;;;;;11.42;100.00;102269.78;1256868;23;20587;-90
2023/10/06 02:33:51;;;;;;;10.02;5.28;;;;;;;11.46;100.00;102273.72;1255571;23;20282;-91
2023/10/06 02:34:40;;;;;;;10.30;5.88;;;;;;;11.46;100.00;102273.72;1253191;23;20470;-91
2023/10/06 02:35:12;;;;;;;10.20;5.95;;;;;;;11.28;100.00;102267.97;1260308;23;20261;-91
2023/10/06 02:35:46;;;;;;;14.38;6.43;;;;;;;11.32;100.00;102266.59;1260174;23;20323;-92
2023/10/06 02:36:21;;;;;;;8.60;5.38;;;;;;;11.24;100.00;102269.38;1266277;23;20258;-91
2023/10/06 02:36:54;;;;;;;14.95;7.72;;;;;;;11.35;100.00;102266.22;1258673;23;20270;-91
2023/10/06 02:37:26;;;;;;;11.00;6.13;;;;;;;11.33;100.00;102262.91;1254882;23;20269;-90
2023/10/06 02:37:58;;;;;;;7.40;5.47;;;;;;;11.35;100.00;102266.22;1251602;23;20251;-91
2023/10/06 02:38:41;;;;;;;9.35;5.25;;;;;;;11.39;100.00;102266.66;1257279;23;20267;-91
2023/10/06 02:39:15;;;;;;;7.50;6.32;;;;;;;11.37;100.00;102258.84;1261148;23;20257;-91
2023/10/06 02:39:47;;;;;;;12.40;5.38;;;;;;;11.24;100.00;102250.69;1253402;23;20251;-91
2023/10/06 02:40:29;;;;;;;9.77;5.15;;;;;;;11.31;100.00;102259.59;1251025;23;20270;-90
2023/10/06 02:41:01;;;;;;;8.95;5.63;;;;;;;11.36;100.00;102256.38;1255711;23;20251;-91
2023/10/06 02:41:34;;;;;;;9.55;5.82;;;;;;;11.33;100.00;102262.91;1259326;23;20321;-92
2023/10/06 02:42:13;;;;;;;7.82;4.97;;;;;;;11.33;100.00;102256.75;1264138;23;20269;-89